Terminal Aerodrome Forecast
Issued by NWS Wilmington, OH

Current Version | Previous Version | Graphics & Text | Print | Product List | Glossary On
Versions: 1 2 3 4 5 6 7 8 9 10 11 12 13 14 15 16 17 18
000
FTUS41 KILN 050300 AAA
TAFDAY
TAF AMD
KDAY 050359Z 0504/0524 29006KT P6SM -SHRA VCTS OVC050CB
      TEMPO 0504/0506 3SM -TSRA BR OVC025CB
     FM050600 20007KT P6SM -SHRA BKN050 OVC120
     FM051000 22008KT P6SM SCT070 BKN120
     FM051500 25008KT P6SM SCT070=

USA.gov is the U.S. government's official web portal to all federal, state and local government web resources and services.